Time;durP1;ratioP1;P1;durP2;ratioP2;P2;SDS_P1;SDS_P2;PMS_P1;PMS_P2;Temp;Humidity;BMP_temperature;BMP_pressure;BME280_temperature;BME280_humidity;BME280_pressure;Samples;Min_cycle;Max_cycle;Signal;HPM_P1;HPM_P2
2022/05/10 00:01:46;;;;;;;12.57;11.67;;;;;;;9.16;100.00;97672.22;5045363;28;20231;-57
2022/05/10 00:04:15;;;;;;;11.43;10.60;;;;;;;9.13;100.00;97664.59;5002529;28;20222;-57
2022/05/10 00:06:47;;;;;;;11.90;10.90;;;;;;;9.11;100.00;97663.94;5025447;28;20528;-57
2022/05/10 00:09:20;;;;;;;12.47;11.57;;;;;;;9.07;100.00;97662.63;5033465;28;20305;-60
2022/05/10 00:11:48;;;;;;;11.77;10.97;;;;;;;9.05;100.00;97659.31;5040693;28;20228;-60
2022/05/10 00:14:17;;;;;;;11.97;10.87;;;;;;;9.05;100.00;97654.03;5045381;28;20738;-58
2022/05/10 00:16:51;;;;;;;12.43;11.43;;;;;;;9.04;100.00;97649.72;5043118;28;20730;-59
2022/05/10 00:19:20;;;;;;;13.23;11.47;;;;;;;9.03;100.00;97648.06;5005007;28;20321;-59
2022/05/10 00:21:49;;;;;;;11.00;10.20;;;;;;;9.02;100.00;97651.72;5044111;28;20219;-57
2022/05/10 00:24:17;;;;;;;12.00;11.03;;;;;;;8.95;100.00;97647.06;5046070;28;20582;-58
2022/05/10 00:26:45;;;;;;;12.13;11.17;;;;;;;8.91;100.00;97651.03;5026268;28;20258;-58
2022/05/10 00:29:13;;;;;;;12.30;11.40;;;;;;;8.88;100.00;97648.69;5042875;28;20233;-57
2022/05/10 00:31:42;;;;;;;12.73;11.63;;;;;;;8.88;100.00;97642.59;5037575;28;20326;-59
2022/05/10 00:34:15;;;;;;;13.00;12.07;;;;;;;8.83;100.00;97645.72;5044536;28;20206;-57
2022/05/10 00:36:43;;;;;;;13.10;12.07;;;;;;;8.80;100.00;97644.22;5002891;28;20234;-60
2022/05/10 00:39:12;;;;;;;12.50;11.60;;;;;;;8.78;100.00;97645.38;5044459;28;20234;-59
2022/05/10 00:41:51;;;;;;;14.13;12.90;;;;;;;8.77;100.00;97651.63;5022209;28;20486;-59
2022/05/10 00:44:21;;;;;;;14.17;13.03;;;;;;;8.78;100.00;97633.00;5043490;28;20198;-62
2022/05/10 00:47:02;;;;;;;13.83;12.73;;;;;;;8.79;100.00;97633.81;5043474;28;20287;-61
2022/05/10 00:49:34;;;;;;;15.73;14.47;;;;;;;8.84;100.00;97642.06;5042932;28;20285;-58
2022/05/10 00:52:08;;;;;;;14.10;13.00;;;;;;;8.83;100.00;97635.97;5001029;28;20233;-55
2022/05/10 00:54:42;;;;;;;12.87;11.80;;;;;;;8.87;100.00;97644.41;5037251;28;20437;-58
2022/05/10 00:57:16;;;;;;;13.27;12.27;;;;;;;8.85;100.00;97635.00;5019866;28;20199;-61
2022/05/10 00:59:50;;;;;;;13.20;12.00;;;;;;;8.73;100.00;97647.66;5032102;28;20550;-59
2022/05/10 01:02:26;;;;;;;12.77;11.77;;;;;;;8.72;100.00;97646.84;5046134;28;21408;-59
2022/05/10 01:05:00;;;;;;;14.50;13.10;;;;;;;8.68;100.00;97650.78;5038988;28;20606;-61
2022/05/10 01:07:32;;;;;;;14.50;13.07;;;;;;;8.62;100.00;97646.16;4976862;28;20408;-59
2022/05/10 01:10:05;;;;;;;14.47;13.17;;;;;;;8.62;100.00;97648.78;5044556;28;20307;-60
2022/05/10 01:12:38;;;;;;;13.47;12.47;;;;;;;8.61;100.00;97647.13;5023291;28;20306;-60
2022/05/10 01:15:08;;;;;;;13.83;12.83;;;;;;;8.53;100.00;97643.47;5043473;28;20748;-62
2022/05/10 01:17:37;;;;;;;13.63;12.43;;;;;;;8.53;100.00;97645.31;5037368;28;20691;-57
2022/05/10 01:20:08;;;;;;;13.47;12.37;;;;;;;8.53;100.00;97650.59;5043637;28;20289;-60
2022/05/10 01:22:51;;;;;;;13.20;12.10;;;;;;;8.48;100.00;97643.09;4989928;28;20784;-61
2022/05/10 01:25:27;;;;;;;13.97;12.60;;;;;;;8.45;100.00;97647.88;5045035;28;20298;-60
2022/05/10 01:28:17;;;;;;;13.87;12.83;;;;;;;8.42;100.00;97646.38;5024779;28;20813;-57
2022/05/10 01:30:46;;;;;;;13.50;12.30;;;;;;;8.43;100.00;97648.03;5046003;28;20280;-56
2022/05/10 01:33:30;;;;;;;12.60;11.70;;;;;;;8.46;100.00;97644.22;5044657;28;20260;-59
2022/05/10 01:36:14;;;;;;;13.20;12.00;;;;;;;8.41;100.00;97642.09;5046614;28;20376;-58
2022/05/10 01:38:53;;;;;;;14.23;13.03;;;;;;;8.33;100.00;97645.50;4995939;28;21595;-61
2022/05/10 01:41:29;;;;;;;13.20;12.23;;;;;;;8.31;100.00;97644.00;5041393;28;20349;-60
2022/05/10 01:44:06;;;;;;;12.67;11.60;;;;;;;8.28;100.00;97645.16;5019931;28;20261;-59
2022/05/10 01:46:34;;;;;;;12.93;11.83;;;;;;;8.23;100.00;97645.63;5043612;28;20230;-58
2022/05/10 01:49:08;;;;;;;13.17;12.17;;;;;;;8.08;100.00;97637.47;5040160;28;20207;-60
2022/05/10 01:51:44;;;;;;;13.30;12.23;;;;;;;8.03;100.00;97639.75;5040122;28;20221;-57
2022/05/10 01:54:37;;;;;;;13.77;12.67;;;;;;;8.03;100.00;97641.56;4996699;28;20589;-59
2022/05/10 01:57:05;;;;;;;13.77;12.77;;;;;;;8.01;100.00;97639.06;5042312;28;20654;-61
2022/05/10 01:59:37;;;;;;;13.03;12.13;;;;;;;7.99;100.00;97643.69;5019643;28;20474;-61
2022/05/10 02:02:06;;;;;;;12.17;11.27;;;;;;;7.98;100.00;97642.03;5044792;28;20252;-60
2022/05/10 02:04:37;;;;;;;13.83;12.63;;;;;;;7.93;100.00;97644.31;5041816;28;20301;-61
2022/05/10 02:07:08;;;;;;;13.73;12.63;;;;;;;7.95;100.00;97639.72;5042161;28;20282;-58
2022/05/10 02:09:39;;;;;;;12.90;11.90;;;;;;;7.97;100.00;97643.03;4995920;28;20344;-61
2022/05/10 02:12:12;;;;;;;13.00;11.90;;;;;;;7.91;100.00;97647.09;5044259;28;20222;-60
2022/05/10 02:14:46;;;;;;;12.77;11.77;;;;;;;7.89;100.00;97648.25;5026759;28;20331;-60
2022/05/10 02:17:16;;;;;;;12.27;11.27;;;;;;;7.81;100.00;97643.75;5016363;28;20199;-61
2022/05/10 02:19:49;;;;;;;11.57;10.77;;;;;;;7.78;100.00;97642.25;5045824;28;20298;-61
2022/05/10 02:22:27;;;;;;;13.73;12.53;;;;;;;7.81;100.00;97644.59;5044605;28;20223;-59
2022/05/10 02:24:58;;;;;;;12.77;11.77;;;;;;;7.77;100.00;97632.69;5000805;28;20313;-64
2022/05/10 02:27:33;;;;;;;13.13;12.00;;;;;;;7.77;100.00;97640.59;5042549;28;20427;-64
2022/05/10 02:30:05;;;;;;;11.83;10.97;;;;;;;7.73;100.00;97639.22;5027781;28;20230;-61
2022/05/10 02:35:22;;;;;;;13.10;12.00;;;;;;;7.71;100.00;97633.28;5043490;28;20491;-61
2022/05/10 02:37:50;;;;;;;13.00;11.90;;;;;;;7.72;100.00;97637.56;5047578;28;20674;-63
2022/05/10 02:40:19;;;;;;;12.87;11.90;;;;;;;7.67;100.00;97630.16;4968362;28;20730;-60
2022/05/10 02:42:48;;;;;;;12.93;11.93;;;;;;;7.63;100.00;97631.44;5046195;28;20693;-57
2022/05/10 02:45:19;;;;;;;12.60;11.57;;;;;;;7.63;100.00;97638.50;5026522;28;20814;-62
2022/05/10 02:47:48;;;;;;;12.00;11.10;;;;;;;7.60;100.00;97631.75;5044114;28;20698;-57
2022/05/10 02:50:21;;;;;;;12.23;11.33;;;;;;;7.59;100.00;97630.09;5045192;28;20259;-58
2022/05/10 02:52:49;;;;;;;12.70;11.70;;;;;;;7.58;100.00;97638.16;5043162;28;20327;-59
2022/05/10 02:55:19;;;;;;;13.17;12.17;;;;;;;7.60;100.00;97630.91;5000483;28;21058;-57
2022/05/10 02:57:48;;;;;;;14.17;12.87;;;;;;;7.54;100.00;97627.06;5049448;28;20206;-59
2022/05/10 03:00:18;;;;;;;13.43;12.43;;;;;;;7.51;100.00;97630.00;5044815;28;20298;-60
2022/05/10 03:02:49;;;;;;;13.30;12.20;;;;;;;7.49;100.00;97631.97;5025773;28;20329;-58
2022/05/10 03:05:17;;;;;;;13.20;12.10;;;;;;;7.45;100.00;97631.47;5047654;28;20488;-61
2022/05/10 03:07:45;;;;;;;14.23;13.03;;;;;;;7.43;100.00;97627.31;5052649;28;20754;-59
2022/05/10 03:10:13;;;;;;;13.87;12.73;;;;;;;7.44;100.00;97632.44;4998913;28;23166;-58
2022/05/10 03:12:41;;;;;;;14.23;12.87;;;;;;;7.44;100.00;97631.59;5048259;28;20515;-59
2022/05/10 03:15:10;;;;;;;15.27;14.00;;;;;;;7.44;100.00;97632.44;5046715;28;20209;-61
2022/05/10 03:17:40;;;;;;;15.83;14.47;;;;;;;7.42;100.00;97631.78;5017522;28;20203;-61
2022/05/10 03:20:09;;;;;;;14.17;13.17;;;;;;;7.41;100.00;97638.03;5040530;28;20295;-62
2022/05/10 03:22:38;;;;;;;15.87;14.63;;;;;;;7.42;100.00;97631.78;5045874;28;20389;-60
2022/05/10 03:25:06;;;;;;;14.63;13.53;;;;;;;7.38;100.00;97630.41;5013382;28;20852;-61
2022/05/10 03:27:37;;;;;;;18.27;16.57;;;;;;;7.40;100.00;97628.47;4999582;28;20339;-57
2022/05/10 03:30:06;;;;;;;17.93;16.10;;;;;;;7.45;100.00;97628.00;5041618;28;20250;-60
2022/05/10 03:32:36;;;;;;;19.23;17.43;;;;;;;7.45;100.00;97626.19;5020467;28;20238;-58
2022/05/10 03:35:06;;;;;;;17.07;15.50;;;;;;;7.45;100.00;97626.19;5019799;28;20334;-54
2022/05/10 03:37:35;;;;;;;15.90;14.57;;;;;;;7.47;100.00;97620.75;5045464;28;20206;-58
2022/05/10 03:40:04;;;;;;;16.70;15.40;;;;;;;7.48;100.00;97628.53;5003328;28;20334;-56
2022/05/10 03:42:32;;;;;;;15.13;14.03;;;;;;;7.51;100.00;97616.81;4997524;28;20562;-64
2022/05/10 03:45:00;;;;;;;15.50;14.27;;;;;;;7.51;100.00;97622.94;5045942;28;20726;-62
2022/05/10 03:47:30;;;;;;;14.57;13.47;;;;;;;7.50;100.00;97628.34;5009193;28;20562;-60
2022/05/10 03:49:58;;;;;;;14.47;13.13;;;;;;;7.49;100.00;97630.19;5026092;28;20670;-56
2022/05/10 03:52:28;;;;;;;17.87;16.20;;;;;;;7.42;100.00;97636.22;5043775;28;20347;-60
2022/05/10 03:54:56;;;;;;;15.57;14.17;;;;;;;7.40;100.00;97639.00;5048957;28;20288;-62
2022/05/10 03:57:24;;;;;;;15.53;14.07;;;;;;;7.41;100.00;97637.19;4992555;28;20679;-56
2022/05/10 03:59:52;;;;;;;14.47;13.13;;;;;;;7.41;100.00;97638.03;5046460;28;20224;-60
2022/05/10 04:02:20;;;;;;;13.53;12.53;;;;;;;7.43;100.00;97638.72;5006727;28;20526;-59
2022/05/10 04:04:48;;;;;;;15.07;13.77;;;;;;;7.48;100.00;97636.44;5029027;28;20310;-59
2022/05/10 04:07:16;;;;;;;14.73;13.43;;;;;;;7.48;100.00;97636.44;5041633;28;20290;-60
2022/05/10 04:09:45;;;;;;;17.40;15.70;;;;;;;7.53;100.00;97630.69;5043352;28;20238;-58
2022/05/10 04:12:14;;;;;;;19.40;17.50;;;;;;;7.55;100.00;97630.53;5018783;28;20893;-61
2022/05/10 04:14:42;;;;;;;18.20;16.60;;;;;;;7.62;100.00;97634.22;5032098;28;20279;-63
2022/05/10 04:17:11;;;;;;;19.93;17.43;;;;;;;7.68;100.00;97630.97;5017680;28;20215;-57
2022/05/10 04:19:39;;;;;;;18.60;16.37;;;;;;;7.73;100.00;97636.59;5020380;28;21165;-62
2022/05/10 04:22:07;;;;;;;16.17;14.87;;;;;;;7.81;100.00;97627.91;5043314;28;20279;-61
2022/05/10 04:24:35;;;;;;;16.10;14.80;;;;;;;7.95;100.00;97624.72;5043417;28;20208;-62
2022/05/10 04:27:05;;;;;;;14.00;12.90;;;;;;;8.01;100.00;97625.06;5046385;28;20325;-61
2022/05/10 04:29:34;;;;;;;13.80;12.70;;;;;;;8.11;100.00;97629.22;5011220;28;21201;-60
2022/05/10 04:32:03;;;;;;;14.13;13.03;;;;;;;8.12;100.00;97640.63;5024152;28;20999;-60
2022/05/10 04:34:32;;;;;;;14.23;13.03;;;;;;;8.10;100.00;97635.50;5006155;28;20269;-60
2022/05/10 04:37:00;;;;;;;13.33;12.13;;;;;;;8.18;100.00;97636.53;5044816;28;20308;-61
2022/05/10 04:41:24;;;;;;;13.67;12.57;;;;;;;8.21;100.00;97636.22;5039996;28;20218;-62
2022/05/10 04:42:17;;;;;;;12.47;11.57;;;;;;;8.25;100.00;97645.47;5046900;28;20235;-60
2022/05/10 04:44:45;;;;;;;14.47;13.37;;;;;;;8.33;100.00;97642.03;5006856;28;20654;-62
2022/05/10 04:47:13;;;;;;;13.00;12.03;;;;;;;8.36;100.00;97637.28;5037852;28;20314;-58
2022/05/10 04:49:42;;;;;;;14.30;13.07;;;;;;;8.36;100.00;97642.56;4997917;28;20226;-57
2022/05/10 04:52:10;;;;;;;14.23;13.03;;;;;;;8.39;100.00;97646.72;5040215;28;20670;-59
2022/05/10 04:54:39;;;;;;;14.27;13.07;;;;;;;8.52;100.00;97643.63;5040920;28;20339;-59
2022/05/10 04:57:08;;;;;;;15.63;13.93;;;;;;;8.59;100.00;97649.09;5043079;28;20283;-58
2022/05/10 04:59:37;;;;;;;15.67;14.17;;;;;;;8.77;100.00;97651.63;5042556;28;20479;-59
2022/05/10 05:02:05;;;;;;;15.87;14.27;;;;;;;8.91;100.00;97652.84;4996199;28;20652;-59
2022/05/10 05:04:37;;;;;;;14.97;13.77;;;;;;;9.15;100.00;97648.59;5004585;28;20607;-58
2022/05/10 05:07:05;;;;;;;14.60;13.20;;;;;;;9.24;100.00;97644.97;5019802;28;20336;-58
2022/05/10 05:09:33;;;;;;;14.03;12.80;;;;;;;9.33;100.00;97646.63;5038639;28;20284;-59
2022/05/10 05:12:01;;;;;;;14.53;13.33;;;;;;;9.47;100.00;97639.84;5021236;28;20231;-61
2022/05/10 05:14:29;;;;;;;15.90;14.13;;;;;;;9.73;100.00;97644.13;5039896;28;20650;-62
2022/05/10 05:16:59;;;;;;;14.43;13.03;;;;;;;9.44;100.00;97634.03;5005097;28;20293;-58
2022/05/10 05:19:27;;;;;;;13.60;12.40;;;;;;;9.47;100.00;97637.19;5028844;28;20210;-59
2022/05/10 05:21:55;;;;;;;17.07;13.27;;;;;;;9.58;100.00;97638.69;5011478;28;20223;-57
2022/05/10 05:24:28;;;;;;;13.53;12.37;;;;;;;9.64;100.00;97640.66;5044086;28;20215;-59
2022/05/10 05:26:56;;;;;;;14.00;12.90;;;;;;;9.84;100.00;97646.44;5040517;28;20309;-59
2022/05/10 05:29:24;;;;;;;13.83;12.80;;;;;;;9.74;100.00;97645.78;5042913;28;20299;-60
2022/05/10 05:32:14;;;;;;;14.27;13.03;;;;;;;9.78;100.00;97648.91;5001962;28;20239;-59
2022/05/10 05:34:42;;;;;;;14.57;13.47;;;;;;;10.07;100.00;97648.38;5028373;28;20212;-59
2022/05/10 05:39:56;;;;;;;15.37;14.07;;;;;;;10.44;100.00;97645.31;5040931;28;20203;-56
2022/05/10 05:42:24;;;;;;;14.23;13.13;;;;;;;10.70;100.00;97648.50;5040848;28;20254;-55
2022/05/10 05:44:52;;;;;;;15.57;14.20;;;;;;;10.66;100.00;97641.91;5037370;28;20285;-57
2022/05/10 05:47:21;;;;;;;15.73;14.43;;;;;;;10.75;100.00;97641.84;5038314;28;20377;-56
2022/05/10 05:49:49;;;;;;;15.57;14.27;;;;;;;10.93;100.00;97650.38;4986991;28;20651;-59
2022/05/10 05:52:20;;;;;;;15.90;14.50;;;;;;;10.96;100.00;97642.06;5026481;28;20566;-59
2022/05/10 05:54:48;;;;;;;17.13;15.53;;;;;;;11.28;100.00;97642.84;5042833;28;20307;-59
2022/05/10 05:57:16;;;;;;;15.30;14.10;;;;;;;11.48;100.00;97642.34;5038451;28;20730;-59
2022/05/10 05:59:45;;;;;;;15.00;13.90;;;;;;;11.53;100.00;97641.84;5040897;28;20288;-59
2022/05/10 06:02:14;;;;;;;15.90;14.63;;;;;;;11.70;100.00;97642.53;5042230;28;20233;-59
2022/05/10 06:04:44;;;;;;;15.27;13.97;;;;;;;11.70;100.00;97640.66;5001420;28;20222;-57
2022/05/10 06:07:13;;;;;;;14.30;13.30;;;;;;;11.98;100.00;97645.41;5010166;28;20981;-58
2022/05/10 06:09:42;;;;;;;15.33;14.17;;;;;;;12.35;100.00;97642.03;5026878;28;20219;-59
2022/05/10 06:12:13;;;;;;;14.50;13.30;;;;;;;12.49;100.00;97637.72;5039439;28;20227;-60
2022/05/10 06:14:42;;;;;;;14.43;13.30;;;;;;;12.69;100.00;97636.16;5040257;28;20243;-58
2022/05/10 06:17:11;;;;;;;13.77;12.67;;;;;;;12.82;100.00;97634.66;5039957;28;20424;-58
2022/05/10 06:19:44;;;;;;;12.93;12.03;;;;;;;13.14;100.00;97632.53;5002287;28;20219;-57
2022/05/10 06:22:14;;;;;;;14.57;13.47;;;;;;;13.49;100.00;97638.03;5010434;28;20698;-60
2022/05/10 06:24:43;;;;;;;13.77;12.67;;;;;;;13.63;100.00;97624.81;5027207;28;20215;-58
2022/05/10 06:27:14;;;;;;;13.30;12.23;;;;;;;13.76;100.00;97624.91;5039987;28;20708;-59
2022/05/10 06:29:42;;;;;;;12.80;11.70;;;;;;;13.99;100.00;97634.50;5041707;28;20578;-58
2022/05/10 06:32:11;;;;;;;12.53;11.53;;;;;;;14.23;100.00;97624.41;5039688;28;20317;-57
2022/05/10 06:34:41;;;;;;;11.90;11.10;;;;;;;14.35;100.00;97629.97;5041673;28;20262;-58
2022/05/10 06:38:16;;;;;;;12.43;11.50;;;;;;;14.51;100.00;97621.66;4985263;28;21585;-61
2022/05/10 06:40:07;;;;;;;13.53;12.30;;;;;;;14.73;100.00;97624.22;5033225;28;20674;-59
2022/05/10 06:42:36;;;;;;;16.73;13.17;;;;;;;14.94;100.00;97623.28;5042012;28;20342;-59
2022/05/10 06:45:08;;;;;;;13.83;12.43;;;;;;;15.26;100.00;97626.22;5037067;28;20286;-60
2022/05/10 06:47:37;;;;;;;14.37;11.97;;;;;;;15.64;100.00;97627.47;5043512;28;20390;-61
2022/05/10 06:50:08;;;;;;;14.90;13.40;;;;;;;15.76;100.00;97617.81;5035434;28;20498;-61
2022/05/10 06:52:37;;;;;;;12.10;11.03;;;;;;;15.69;100.00;97619.66;5004359;28;20375;-58
2022/05/10 06:55:09;;;;;;;12.60;11.27;;;;;;;15.86;100.00;97621.91;5007888;28;20331;-60
2022/05/10 06:57:37;;;;;;;10.20;9.40;;;;;;;16.15;100.00;97614.50;5045797;28;20238;-57
2022/05/10 07:00:07;;;;;;;9.47;8.73;;;;;;;16.36;100.00;97613.41;5041521;28;20852;-60
2022/05/10 07:02:36;;;;;;;8.77;7.93;;;;;;;16.49;100.00;97620.56;5046255;28;20628;-56
2022/05/10 07:05:04;;;;;;;8.03;7.43;;;;;;;16.64;100.00;97617.63;5040826;28;20396;-59
2022/05/10 07:07:33;;;;;;;7.57;7.07;;;;;;;16.86;100.00;97614.66;5003549;28;20215;-58
2022/05/10 07:10:01;;;;;;;8.10;7.50;;;;;;;16.92;100.00;97613.81;5027598;28;20690;-59
2022/05/10 07:12:31;;;;;;;8.20;7.60;;;;;;;16.92;100.00;97609.25;5048454;28;20733;-60
2022/05/10 07:14:59;;;;;;;8.97;8.07;;;;;;;17.07;100.00;97603.66;5043354;28;20234;-60
2022/05/10 07:17:33;;;;;;;8.43;7.93;;;;;;;16.78;100.00;97611.19;5043823;28;20260;-62
2022/05/10 07:20:02;;;;;;;8.43;7.83;;;;;;;16.92;100.00;97611.13;5039984;28;20203;-60
2022/05/10 07:22:30;;;;;;;9.40;8.60;;;;;;;17.15;100.00;97609.78;5001464;28;20231;-61
2022/05/10 07:24:59;;;;;;;9.07;8.37;;;;;;;17.35;100.00;97602.44;5025890;28;20229;-60
2022/05/10 07:27:27;;;;;;;9.73;8.93;;;;;;;17.32;100.00;97607.41;5028954;28;20718;-62
2022/05/10 07:29:56;;;;;;;8.37;7.67;;;;;;;17.39;100.00;97600.13;5043453;28;20238;-60
2022/05/10 07:32:25;;;;;;;8.67;8.07;;;;;;;17.47;100.00;97602.56;5046969;28;20820;-61
2022/05/10 07:34:54;;;;;;;9.27;8.67;;;;;;;17.55;100.00;97604.13;5044936;28;20242;-59
2022/05/10 07:37:23;;;;;;;9.00;8.33;;;;;;;17.57;100.00;97609.28;5001723;28;21254;-61
2022/05/10 07:39:52;;;;;;;8.73;8.07;;;;;;;17.69;100.00;97602.16;5023028;28;20310;-59
2022/05/10 07:42:20;;;;;;;8.37;7.77;;;;;;;17.74;100.00;97601.50;5042457;28;20781;-58
2022/05/10 07:44:51;;;;;;;8.53;7.93;;;;;;;17.79;100.00;97596.31;5044608;28;20199;-59
2022/05/10 07:47:20;;;;;;;8.77;7.87;;;;;;;17.82;100.00;97597.75;5045855;28;20289;-59
2022/05/10 07:49:48;;;;;;;8.27;7.73;;;;;;;17.85;100.00;97600.78;5043063;28;20210;-60
2022/05/10 07:52:16;;;;;;;8.47;7.77;;;;;;;17.97;100.00;97600.88;5044060;28;20884;-59
2022/05/10 07:54:44;;;;;;;8.67;7.97;;;;;;;18.19;100.00;97605.84;4986568;28;20215;-59
2022/05/10 07:57:12;;;;;;;8.23;7.53;;;;;;;18.14;100.00;97603.84;5042118;28;20318;-59
2022/05/10 07:59:40;;;;;;;7.70;7.10;;;;;;;18.18;100.00;97599.66;5040705;28;20322;-60
2022/05/10 08:02:08;;;;;;;7.63;7.03;;;;;;;18.13;100.00;97596.81;5040743;28;20901;-60
2022/05/10 08:04:38;;;;;;;7.50;6.90;;;;;;;18.34;100.00;97600.09;5045255;28;20840;-60
2022/05/10 08:07:06;;;;;;;7.63;6.90;;;;;;;18.57;100.00;97606.66;5042486;28;20287;-60
2022/05/10 08:09:34;;;;;;;7.20;6.60;;;;;;;18.68;100.00;97605.06;4989995;28;20303;-65
2022/05/10 08:12:02;;;;;;;7.63;7.03;;;;;;;18.90;100.00;97600.84;5039703;28;20636;-59
2022/05/10 08:14:30;;;;;;;9.23;6.20;;;;;;;19.02;100.00;97598.22;5040934;28;20344;-59
2022/05/10 08:16:58;;;;;;;6.47;6.00;;;;;;;19.02;100.00;97598.22;5039336;28;20207;-59
2022/05/10 08:19:27;;;;;;;7.47;6.80;;;;;;;19.20;100.00;97596.56;5046209;28;20203;-59
2022/05/10 08:21:58;;;;;;;6.97;6.57;;;;;;;19.30;100.00;97590.59;5042442;28;20771;-57
2022/05/10 08:24:27;;;;;;;6.40;5.90;;;;;;;19.28;100.00;97593.53;4989494;28;20215;-60
2022/05/10 08:26:56;;;;;;;7.13;6.43;;;;;;;19.27;100.00;97597.25;5042314;28;20697;-60
2022/05/10 08:29:24;;;;;;;7.17;6.67;;;;;;;19.48;100.00;97595.91;5030304;28;20668;-60
2022/05/10 08:31:52;;;;;;;7.27;6.63;;;;;;;19.45;100.00;97598.22;5038476;28;20313;-61
2022/05/10 08:34:20;;;;;;;7.67;7.17;;;;;;;19.52;100.00;97597.06;5040276;28;20427;-58
2022/05/10 08:36:53;;;;;;;7.07;6.57;;;;;;;19.67;100.00;97593.94;5039906;28;20226;-61
2022/05/10 08:39:23;;;;;;;6.60;6.20;;;;;;;19.77;100.00;97592.53;4999844;28;20218;-59
2022/05/10 08:41:55;;;;;;;7.90;7.40;;;;;;;19.87;100.00;97597.31;5025201;28;20406;-61
2022/05/10 08:44:26;;;;;;;8.20;7.40;;;;;;;19.82;100.00;97589.94;5044002;28;20205;-57
2022/05/10 08:46:57;;;;;;;6.70;6.30;;;;;;;20.04;100.00;97587.50;5032790;28;20211;-60
2022/05/10 08:49:33;;;;;;;6.33;5.93;;;;;;;20.04;100.00;97589.41;5042841;28;20206;-62
2022/05/10 08:52:01;;;;;;;7.40;6.90;;;;;;;20.10;100.00;97586.59;5041264;28;20314;-60
2022/05/10 08:54:31;;;;;;;7.77;7.17;;;;;;;20.27;100.00;97596.63;5006334;28;20338;-58
2022/05/10 08:57:01;;;;;;;7.33;6.83;;;;;;;20.25;100.00;97596.03;5029218;28;20289;-59
2022/05/10 08:59:34;;;;;;;6.70;6.30;;;;;;;20.49;100.00;97599.50;5039303;28;20318;-61
2022/05/10 09:02:04;;;;;;;10.80;7.20;;;;;;;20.65;100.00;97589.84;5016983;28;20314;-59
2022/05/10 09:04:43;;;;;;;6.33;5.93;;;;;;;20.67;100.00;97589.63;5039387;28;20210;-60
2022/05/10 09:07:18;;;;;;;6.53;5.97;;;;;;;20.69;100.00;97590.19;5040618;28;20288;-59
2022/05/10 09:09:58;;;;;;;6.57;6.07;;;;;;;20.67;99.56;97584.25;5040320;28;20212;-59
2022/05/10 09:12:26;;;;;;;7.40;5.83;;;;;;;20.69;91.05;97576.75;5006468;28;20241;-61
2022/05/10 09:14:57;;;;;;;6.17;5.77;;;;;;;20.77;100.00;97583.59;5040646;28;20231;-62
2022/05/10 09:17:29;;;;;;;5.83;5.43;;;;;;;20.71;100.00;97585.41;5016771;28;20207;-61
2022/05/10 09:19:58;;;;;;;6.60;6.10;;;;;;;;;;5036793;28;20312;-61
2022/05/10 09:23:09;;;;;;;6.17;5.60;;;;;;;20.86;94.07;97584.91;5043037;28;20227;-61
2022/05/10 09:25:41;;;;;;;5.60;5.10;;;;;;;20.91;97.25;97579.59;5031877;28;20665;-61
2022/05/10 09:28:15;;;;;;;6.20;5.30;;;;;;;20.80;91.70;97577.75;5015944;28;20599;-63
2022/05/10 09:34:45;;;;;;;6.03;5.53;;;;;;;20.96;88.70;97570.78;5040543;28;20207;-60
2022/05/10 09:36:26;;;;;;;6.43;5.50;;;;;;;21.10;94.27;97574.81;5042866;28;20227;-60
2022/05/10 09:39:01;;;;;;;10.37;6.77;;;;;;;21.22;96.98;97576.63;5039994;28;20260;-58
2022/05/10 09:41:43;;;;;;;6.13;5.40;;;;;;;21.16;87.14;97572.22;5002206;28;20564;-63
2022/05/10 09:44:18;;;;;;;6.23;5.63;;;;;;;21.29;86.93;97563.00;5039687;28;20287;-62
2022/05/10 09:46:46;;;;;;;5.67;5.33;;;;;;;21.36;86.38;97569.84;5043085;28;20299;-59
2022/05/10 09:49:37;;;;;;;5.60;5.20;;;;;;;21.40;80.38;97554.84;5031769;28;20203;-57
2022/05/10 09:52:07;;;;;;;6.47;6.07;;;;;;;21.48;85.45;97563.59;5042055;28;20226;-59
2022/05/10 09:54:38;;;;;;;5.83;5.33;;;;;;;21.71;88.56;97565.31;5042192;28;20639;-59
2022/05/10 09:57:13;;;;;;;6.57;6.17;;;;;;;21.59;75.04;97564.53;4998253;28;20303;-61
2022/05/10 09:59:45;;;;;;;6.17;5.60;;;;;;;21.52;76.98;97562.81;5042508;28;20594;-58
2022/05/10 10:02:27;;;;;;;5.40;5.00;;;;;;;21.43;71.40;97563.50;5045659;28;20970;-57
2022/05/10 10:04:56;;;;;;;5.83;5.43;;;;;;;21.60;71.74;97552.72;5015250;28;20402;-58
2022/05/10 10:07:25;;;;;;;5.83;5.43;;;;;;;21.66;63.84;97559.84;5040265;28;20605;-57
2022/05/10 10:09:55;;;;;;;6.03;5.53;;;;;;;21.66;70.56;97549.88;5043277;28;20199;-59
2022/05/10 10:12:33;;;;;;;5.50;5.10;;;;;;;21.57;68.63;97555.88;5000623;28;20249;-58
2022/05/10 10:15:03;;;;;;;6.07;5.57;;;;;;;21.64;73.31;97543.09;5039540;28;20633;-59
2022/05/10 10:17:34;;;;;;;6.40;5.77;;;;;;;21.75;64.50;97533.25;5043576;28;20202;-60
2022/05/10 10:20:05;;;;;;;6.10;5.50;;;;;;;21.70;72.54;97542.09;5014694;28;20415;-58
2022/05/10 10:22:40;;;;;;;6.37;5.83;;;;;;;21.81;72.88;97537.69;5040301;28;20219;-59
2022/05/10 10:25:12;;;;;;;6.07;5.60;;;;;;;21.90;63.46;97541.56;5036061;28;20505;-60
2022/05/10 10:27:43;;;;;;;5.50;5.10;;;;;;;21.94;65.28;97534.63;5020848;28;20335;-59
2022/05/10 10:30:22;;;;;;;5.87;5.47;;;;;;;21.86;70.04;97531.53;5027990;28;20745;-60
2022/05/10 10:32:52;;;;;;;6.50;5.90;;;;;;;21.89;68.00;97526.47;5027650;28;20262;-59
2022/05/10 10:35:32;;;;;;;6.60;6.00;;;;;;;22.01;72.40;97533.63;5046487;28;22310;-61
2022/05/10 10:38:06;;;;;;;6.40;5.73;;;;;;;21.94;62.45;97523.84;5027741;28;20331;-59
2022/05/10 10:40:39;;;;;;;6.30;5.80;;;;;;;22.17;69.98;97526.53;5046382;28;20211;-59
2022/05/10 10:43:16;;;;;;;5.47;5.07;;;;;;;22.20;63.20;97518.78;5041923;28;20436;-60
2022/05/10 10:45:46;;;;;;;5.40;5.10;;;;;;;22.15;57.28;97526.78;5003313;28;20214;-57
2022/05/10 10:48:25;;;;;;;5.07;4.57;;;;;;;22.31;58.95;97521.59;5046505;28;20787;-59
2022/05/10 10:50:54;;;;;;;5.07;4.73;;;;;;;22.42;51.61;97515.22;5016164;28;20383;-58
2022/05/10 10:53:25;;;;;;;4.87;4.57;;;;;;;22.33;60.12;97522.13;5046261;28;20374;-59
2022/05/10 10:56:03;;;;;;;4.37;4.00;;;;;;;22.28;50.84;97520.19;5040596;28;20948;-58
2022/05/10 10:58:40;;;;;;;5.27;4.80;;;;;;;22.35;53.19;97515.44;5044751;28;20209;-58
2022/05/10 11:01:18;;;;;;;5.23;4.80;;;;;;;22.43;62.33;97516.84;5001994;28;20306;-58
2022/05/10 11:03:53;;;;;;;7.10;4.90;;;;;;;22.52;63.72;97504.56;5032275;28;20209;-59
2022/05/10 11:06:25;;;;;;;5.17;4.70;;;;;;;22.53;58.10;97510.78;5046942;28;20285;-59
2022/05/10 11:09:06;;;;;;;5.10;4.70;;;;;;;22.51;52.60;97507.53;5032689;28;20482;-59
2022/05/10 11:11:44;;;;;;;5.63;5.13;;;;;;;22.48;60.97;97508.03;5041702;28;20589;-59
2022/05/10 11:14:25;;;;;;;4.93;4.63;;;;;;;22.37;68.81;97505.19;5047384;28;20203;-59
2022/05/10 11:16:59;;;;;;;4.97;4.13;;;;;;;22.61;53.26;97501.44;4999242;28;21008;-58
2022/05/10 11:19:58;;;;;;;8.60;6.40;;;;;;;22.57;52.27;97497.59;5042509;28;20223;-59
2022/05/10 11:22:33;;;;;;;5.40;4.90;;;;;;;22.58;55.64;97489.25;5019655;28;20265;-60
2022/05/10 11:25:12;;;;;;;10.70;6.17;;;;;;;22.68;58.76;97486.63;5042922;28;20195;-58
2022/05/10 11:27:52;;;;;;;4.70;4.07;;;;;;;22.80;50.98;97483.78;5044041;28;20238;-58
2022/05/10 11:30:23;;;;;;;4.97;4.40;;;;;;;22.91;52.06;97478.47;5002446;28;20297;-58
2022/05/10 11:33:11;;;;;;;5.00;4.60;;;;;;;23.10;55.41;97473.47;5040901;28;20222;-59
2022/05/10 11:35:52;;;;;;;4.93;4.63;;;;;;;23.18;60.95;97475.72;5046408;28;20317;-59
2022/05/10 11:38:30;;;;;;;5.50;4.93;;;;;;;23.10;55.41;97470.78;5032551;28;20239;-58
2022/05/10 11:41:08;;;;;;;4.90;4.60;;;;;;;23.02;53.13;97466.69;5042912;28;20207;-59
2022/05/10 11:44:14;;;;;;;7.87;4.83;;;;;;;23.24;52.44;97461.19;5043379;28;20305;-59
2022/05/10 11:47:06;;;;;;;5.20;4.70;;;;;;;23.28;53.35;97464.19;4973998;28;20696;-59
2022/05/10 11:49:56;;;;;;;5.53;4.13;;;;;;;23.32;50.27;97457.22;5045298;28;20204;-56
2022/05/10 11:52:45;;;;;;;4.17;3.97;;;;;;;23.35;43.58;97453.16;5042893;28;20948;-60